Aérodrome :
LOGIN :

S'inscrire | Disclaimer

   EN    FR    IT 

 










Légende :    VFR   VFR Marginal   IFR   IFR Intensif   IFR Très Intensif
Visi : 
Plafond : 
>= 8 km
>= 3000ft
5 à 8 km
1000 à 3000 ft
1500m à 5 km
500 à 1000 ft
800 à 1500m
200 à 500 ft
< 800m
< 200 ft
Symboles :   Orages  Brouillard  Fortes neiges  Fortes précipitations  Vent > 20 kt
SIGMETs :   Divers  Orages  Givrage  Turbulence  Onde Orograph.  Cendres Volcan.






- Altitude de l'aérodrome : 28 ft
- Code IATA : SOZ


LFKS - Solenzara

DERNIER METAR :
  • 070900Z AUTO VRB02KT CAVOK 13/05 Q1019

METARs EXPIRÉS :
  • 070830Z AUTO VRB01KT CAVOK 11/04 Q1019
  • 070800Z AUTO 30006KT 260V330 CAVOK 09/03 Q1019
  • 070730Z AUTO 29005KT 260V320 CAVOK 08/02 Q1019
  • 070700Z AUTO 29005KT 250V320 CAVOK 07/02 Q1019
  • 070630Z AUTO 26006KT 220V290 CAVOK 07/02 Q1018
  • 070600Z AUTO 26007KT CAVOK 07/02 Q1018
  • 070530Z AUTO 26007KT 230V300 CAVOK 07/02 Q1018
  • 070500Z AUTO 26007KT CAVOK 07/02 Q1018
  • 070430Z AUTO 27007KT 240V300 CAVOK 07/02 Q1017

TAF TAF LFKS
Valide du 07 à 03h jusqu'au 08 à 03h UTC


070200Z 0703/0803 27005KT CAVOK



MET'MAP, la Météo Aéronautique d'un coup d'oeil ! - Copyright ORBIFLY Décembre 2007 - Disclaimer

ORBIFLY MET'MAP TEAM :

Programmation & Développement : Alexandra Zaïnal
Sur une idée originale de : Baudouin d'Aumeries
Soutien technique & logistique : Manuel Goepfert
Assistance : Marc-Olivier Méhu




SOURCES & CREDITS :

   NOAA